Time;durP1;ratioP1;P1;durP2;ratioP2;P2;SDS_P1;SDS_P2;PMS_P1;PMS_P2;Temp;Humidity;BMP_temperature;BMP_pressure;BME280_temperature;BME280_humidity;BME280_pressure;Samples;Min_cycle;Max_cycle;Signal;HPM_P1;HPM_P2
2021/10/08 00:00:27;;;;;;;12.73;8.52;;;;;;;;;;4984833;28;20034;-81
2021/10/08 00:02:53;;;;;;;10.55;7.55;;;;;;;;;;4954227;28;20034;-81
2021/10/08 00:05:19;;;;;;;12.55;7.30;;;;;;;;;;4966539;28;20038;-82
2021/10/08 00:07:45;;;;;;;12.98;8.73;;;;;;;;;;4969123;28;20034;-83
2021/10/08 00:10:11;;;;;;;9.68;7.50;;;;;;;;;;4954196;28;20046;-83
2021/10/08 00:12:37;;;;;;;12.10;7.80;;;;;;;;;;4954328;28;20035;-83
2021/10/08 00:15:03;;;;;;;10.70;7.88;;;;;;;;;;5001957;28;20483;-83
2021/10/08 00:17:29;;;;;;;13.45;8.52;;;;;;;;;;4995978;28;20038;-81
2021/10/08 00:19:55;;;;;;;10.77;8.15;;;;;;;;;;4988174;28;20023;-81
2021/10/08 00:22:21;;;;;;;14.45;8.68;;;;;;;;;;4983379;28;20091;-82
2021/10/08 00:24:48;;;;;;;11.23;8.35;;;;;;;;;;4966648;28;20050;-82
2021/10/08 00:27:14;;;;;;;10.00;8.05;;;;;;;;;;4951205;28;20061;-82
2021/10/08 00:29:40;;;;;;;11.32;7.72;;;;;;;;;;5002618;28;20034;-82
2021/10/08 00:32:06;;;;;;;15.50;9.13;;;;;;;;;;4986012;28;20046;-83
2021/10/08 00:34:32;;;;;;;13.10;9.18;;;;;;;;;;4970379;28;20031;-81
2021/10/08 00:36:58;;;;;;;9.70;6.68;;;;;;;;;;4954283;28;20502;-82
2021/10/08 00:39:25;;;;;;;11.18;6.03;;;;;;;;;;4983285;28;20046;-83
2021/10/08 00:41:51;;;;;;;6.90;5.10;;;;;;;;;;4969651;28;20041;-83
2021/10/08 00:44:17;;;;;;;11.10;5.60;;;;;;;;;;4984601;28;20492;-83
2021/10/08 00:46:44;;;;;;;8.38;6.00;;;;;;;;;;4965389;28;20191;-82
2021/10/08 00:49:11;;;;;;;11.00;7.57;;;;;;;;;;4964861;28;20097;-82
2021/10/08 00:51:37;;;;;;;10.07;7.28;;;;;;;;;;4965296;28;20027;-82
2021/10/08 00:54:03;;;;;;;7.55;6.28;;;;;;;;;;4983200;28;20069;-83
2021/10/08 00:56:29;;;;;;;7.10;5.50;;;;;;;;;;4976642;28;20022;-82
2021/10/08 01:01:31;;;;;;;11.70;6.88;;;;;;;;;;5028305;23;20099;-82
2021/10/08 01:03:57;;;;;;;8.73;5.65;;;;;;;;;;4932169;29;20511;-82
2021/10/08 01:06:23;;;;;;;9.25;6.00;;;;;;;;;;4949821;28;20031;-83
2021/10/08 01:08:49;;;;;;;9.20;6.07;;;;;;;;;;4967775;28;20027;-82
2021/10/08 01:11:19;;;;;;;11.30;7.18;;;;;;;;;;4951976;28;20027;-82
2021/10/08 01:13:45;;;;;;;12.90;6.28;;;;;;;;;;4968104;28;20026;-82
2021/10/08 01:16:11;;;;;;;10.90;6.57;;;;;;;;;;4985084;28;20101;-82
2021/10/08 01:18:38;;;;;;;10.40;6.22;;;;;;;;;;4969639;28;20061;-82
2021/10/08 01:21:04;;;;;;;10.68;6.07;;;;;;;;;;4967193;28;20121;-82
2021/10/08 01:23:30;;;;;;;8.70;6.32;;;;;;;;;;4968663;28;20104;-82
2021/10/08 01:25:56;;;;;;;9.65;6.10;;;;;;;;;;4968415;28;20562;-82
2021/10/08 01:28:22;;;;;;;8.50;5.95;;;;;;;;;;4967855;28;20042;-82
2021/10/08 01:30:48;;;;;;;10.82;6.38;;;;;;;;;;4953051;29;20039;-82
2021/10/08 01:33:15;;;;;;;9.38;5.95;;;;;;;;;;4947886;29;20050;-82
2021/10/08 01:35:41;;;;;;;8.35;5.80;;;;;;;;;;4947348;29;20499;-82
2021/10/08 01:38:07;;;;;;;10.23;6.43;;;;;;;;;;4954256;28;20022;-82
2021/10/08 01:40:33;;;;;;;11.80;6.85;;;;;;;;;;4964275;28;20039;-82
2021/10/08 01:42:59;;;;;;;8.98;6.70;;;;;;;;;;4964751;28;20039;-82
2021/10/08 01:45:25;;;;;;;9.38;6.35;;;;;;;;;;4966239;28;20035;-82
2021/10/08 01:47:51;;;;;;;11.18;7.00;;;;;;;;;;4967567;28;20062;-82
2021/10/08 01:50:17;;;;;;;8.43;6.18;;;;;;;;;;4983785;28;20080;-82
2021/10/08 01:52:43;;;;;;;8.88;6.70;;;;;;;;;;4983681;28;20119;-82
2021/10/08 01:55:09;;;;;;;10.57;7.07;;;;;;;;;;4951809;28;20125;-82
2021/10/08 01:57:35;;;;;;;12.05;7.72;;;;;;;;;;4967837;28;20031;-81
2021/10/08 02:00:01;;;;;;;11.02;7.72;;;;;;;;;;4942292;29;20038;-82
2021/10/08 02:02:27;;;;;;;12.60;7.63;;;;;;;;;;4965079;28;20041;-82
2021/10/08 02:04:53;;;;;;;9.50;7.43;;;;;;;;;;4984788;28;20035;-82
2021/10/08 02:07:19;;;;;;;9.27;6.50;;;;;;;;;;4967358;28;20030;-82
2021/10/08 02:09:45;;;;;;;15.02;7.93;;;;;;;;;;4966786;28;20038;-82
2021/10/08 02:12:11;;;;;;;11.07;7.90;;;;;;;;;;4968638;28;20038;-82
2021/10/08 02:14:37;;;;;;;14.80;7.93;;;;;;;;;;4983677;28;20073;-82
2021/10/08 02:17:04;;;;;;;9.27;7.03;;;;;;;;;;4966620;28;20054;-82
2021/10/08 02:19:30;;;;;;;11.13;7.60;;;;;;;;;;4966282;28;20033;-82
2021/10/08 02:21:56;;;;;;;11.63;8.00;;;;;;;;;;4966324;28;20038;-82
2021/10/08 02:24:22;;;;;;;10.02;8.05;;;;;;;;;;4965641;28;20499;-82
2021/10/08 02:26:48;;;;;;;10.50;8.23;;;;;;;;;;4966059;28;20041;-82
2021/10/08 02:29:14;;;;;;;13.82;8.27;;;;;;;;;;4964125;28;20031;-82
2021/10/08 02:31:40;;;;;;;11.77;7.95;;;;;;;;;;4930320;29;20031;-82
2021/10/08 02:34:06;;;;;;;13.35;8.25;;;;;;;;;;4978711;28;20034;-82
2021/10/08 02:36:32;;;;;;;10.32;7.28;;;;;;;;;;4965624;28;20026;-82
2021/10/08 02:38:58;;;;;;;14.20;7.68;;;;;;;;;;4980224;28;20034;-82
2021/10/08 02:41:24;;;;;;;10.43;7.32;;;;;;;;;;4943882;28;20033;-82
2021/10/08 02:43:50;;;;;;;10.27;7.63;;;;;;;;;;4960257;28;20023;-82
2021/10/08 02:46:16;;;;;;;12.63;7.75;;;;;;;;;;4945126;28;20061;-82
2021/10/08 02:48:42;;;;;;;11.98;8.15;;;;;;;;;;4960051;28;20031;-82
2021/10/08 02:51:08;;;;;;;14.35;8.32;;;;;;;;;;4964994;28;20027;-82
2021/10/08 02:53:34;;;;;;;13.07;8.40;;;;;;;;;;4965980;28;20035;-82
2021/10/08 02:56:00;;;;;;;13.63;8.05;;;;;;;;;;4965990;28;20507;-82
2021/10/08 02:58:26;;;;;;;14.13;8.30;;;;;;;;;;4965537;28;20038;-81
2021/10/08 03:00:53;;;;;;;11.88;7.93;;;;;;;;;;4949991;29;20038;-82
2021/10/08 03:03:19;;;;;;;10.82;8.18;;;;;;;;;;4946272;29;20031;-82
2021/10/08 03:05:45;;;;;;;13.48;8.27;;;;;;;;;;4945135;28;20035;-82
2021/10/08 03:08:11;;;;;;;14.13;8.50;;;;;;;;;;4966212;28;20118;-82
2021/10/08 03:10:37;;;;;;;16.42;8.98;;;;;;;;;;4982596;28;20115;-82
2021/10/08 03:13:03;;;;;;;13.43;9.38;;;;;;;;;;4949452;28;20575;-82
2021/10/08 03:15:29;;;;;;;13.73;8.80;;;;;;;;;;4964873;28;20103;-82
2021/10/08 03:17:55;;;;;;;12.95;9.15;;;;;;;;;;4965293;28;20033;-82
2021/10/08 03:20:22;;;;;;;18.40;9.40;;;;;;;;;;4965133;28;20121;-82
2021/10/08 03:22:47;;;;;;;18.17;9.77;;;;;;;;;;4982029;28;20409;-82
2021/10/08 03:25:13;;;;;;;14.82;9.20;;;;;;;;;;4949923;28;20027;-82
2021/10/08 03:27:40;;;;;;;12.90;8.60;;;;;;;;;;4965110;28;20154;-82
2021/10/08 03:30:08;;;;;;;12.98;9.27;;;;;;;;;;4973460;28;20039;-82
2021/10/08 03:32:34;;;;;;;12.52;8.63;;;;;;;;;;4967281;28;20023;-82
2021/10/08 03:35:00;;;;;;;11.63;8.80;;;;;;;;;;4965571;28;20026;-82
2021/10/08 03:37:40;;;;;;;14.02;9.60;;;;;;;;;;4950560;28;20036;-82
2021/10/08 03:40:08;;;;;;;12.82;9.60;;;;;;;;;;4965193;28;20023;-82
2021/10/08 03:42:34;;;;;;;13.18;9.75;;;;;;;;;;4965462;28;20026;-82
2021/10/08 03:45:09;;;;;;;16.23;10.68;;;;;;;;;;4949386;28;20146;-82
2021/10/08 03:47:52;;;;;;;20.38;12.02;;;;;;;;;;4966734;28;20059;-82
2021/10/08 03:50:19;;;;;;;19.58;10.88;;;;;;;;;;4966967;28;20027;-81
2021/10/08 03:52:45;;;;;;;14.50;10.77;;;;;;;;;;4972765;28;20026;-80
2021/10/08 03:55:11;;;;;;;15.40;9.02;;;;;;;;;;4968376;28;20462;-81
2021/10/08 03:57:37;;;;;;;15.63;11.32;;;;;;;;;;4983307;28;20076;-81
2021/10/08 04:00:03;;;;;;;17.20;10.93;;;;;;;;;;4948950;28;20403;-81
2021/10/08 04:02:29;;;;;;;15.18;10.55;;;;;;;;;;4948831;28;20647;-81
2021/10/08 04:04:55;;;;;;;14.15;8.65;;;;;;;;;;4946921;28;20047;-81
2021/10/08 04:07:21;;;;;;;16.25;10.32;;;;;;;;;;4962015;28;20042;-81
2021/10/08 04:09:47;;;;;;;16.65;10.15;;;;;;;;;;4964704;28;20411;-81
2021/10/08 04:12:13;;;;;;;16.60;9.90;;;;;;;;;;4949509;28;20035;-81
2021/10/08 04:14:40;;;;;;;15.38;9.27;;;;;;;;;;4949543;28;20035;-81
2021/10/08 04:17:05;;;;;;;14.68;9.93;;;;;;;;;;4964577;28;20034;-81
2021/10/08 04:19:31;;;;;;;12.88;9.20;;;;;;;;;;4982287;28;20023;-81
2021/10/08 04:21:58;;;;;;;14.30;9.27;;;;;;;;;;4965339;28;20031;-81
2021/10/08 04:24:24;;;;;;;13.68;9.57;;;;;;;;;;4949256;28;20031;-81
2021/10/08 04:26:49;;;;;;;13.02;9.73;;;;;;;;;;4986228;28;20073;-81
2021/10/08 04:29:16;;;;;;;16.63;9.98;;;;;;;;;;4967271;28;20038;-81
2021/10/08 04:31:41;;;;;;;15.82;9.57;;;;;;;;;;4967987;28;20526;-81
2021/10/08 04:34:07;;;;;;;17.42;10.43;;;;;;;;;;4952401;28;20035;-81
2021/10/08 04:36:33;;;;;;;17.35;10.38;;;;;;;;;;4968563;28;20023;-80
2021/10/08 04:38:59;;;;;;;13.70;9.43;;;;;;;;;;4968602;28;20035;-81
2021/10/08 04:41:25;;;;;;;18.75;10.85;;;;;;;;;;4968445;28;20074;-81
2021/10/08 04:43:51;;;;;;;16.48;10.02;;;;;;;;;;4987416;28;20031;-80
2021/10/08 04:46:17;;;;;;;14.18;9.63;;;;;;;;;;4952566;28;20058;-81
2021/10/08 04:48:43;;;;;;;14.75;9.88;;;;;;;;;;4952069;28;20106;-81
2021/10/08 04:51:09;;;;;;;14.32;8.88;;;;;;;;;;4968077;28;20119;-81
2021/10/08 04:53:35;;;;;;;14.35;10.18;;;;;;;;;;4985523;28;20038;-81
2021/10/08 04:56:01;;;;;;;13.48;8.95;;;;;;;;;;4985631;28;20415;-81
2021/10/08 04:58:27;;;;;;;14.07;9.30;;;;;;;;;;4968065;28;20034;-81
2021/10/08 05:00:53;;;;;;;15.75;10.50;;;;;;;;;;4952755;29;20027;-81
2021/10/08 05:03:19;;;;;;;16.80;9.30;;;;;;;;;;4983454;28;20051;-81
2021/10/08 05:05:53;;;;;;;14.90;9.50;;;;;;;;;;4986027;28;20026;-80
2021/10/08 05:08:19;;;;;;;14.30;9.55;;;;;;;;;;4985531;28;20046;-81
2021/10/08 05:10:45;;;;;;;14.80;8.88;;;;;;;;;;4967720;28;20038;-81
2021/10/08 05:13:12;;;;;;;12.98;9.10;;;;;;;;;;4967910;28;20022;-81
2021/10/08 05:15:38;;;;;;;16.60;9.25;;;;;;;;;;4967277;28;20037;-81
2021/10/08 05:18:04;;;;;;;16.85;10.70;;;;;;;;;;4984956;28;20027;-81
2021/10/08 05:20:30;;;;;;;16.90;10.27;;;;;;;;;;4966777;28;20035;-81
2021/10/08 05:22:56;;;;;;;19.45;10.93;;;;;;;;;;4985118;28;20046;-80
2021/10/08 05:25:22;;;;;;;20.67;11.80;;;;;;;;;;4967570;28;20419;-81
2021/10/08 05:27:48;;;;;;;22.98;12.35;;;;;;;;;;4967901;28;20018;-80
2021/10/08 05:30:15;;;;;;;19.52;11.40;;;;;;;;;;4957202;29;20027;-81
2021/10/08 05:32:41;;;;;;;22.20;12.93;;;;;;;;;;4954306;28;20027;-81
2021/10/08 05:35:08;;;;;;;17.10;10.48;;;;;;;;;;4984575;28;20576;-80
2021/10/08 05:37:34;;;;;;;15.07;10.10;;;;;;;;;;4983290;28;20015;-80
2021/10/08 05:40:00;;;;;;;17.17;10.30;;;;;;;;;;4966308;28;20065;-80
2021/10/08 05:42:26;;;;;;;16.75;10.57;;;;;;;;;;4983882;28;20027;-80
2021/10/08 05:44:52;;;;;;;15.88;10.48;;;;;;;;;;4967276;28;20122;-80
2021/10/08 05:47:18;;;;;;;18.20;10.63;;;;;;;;;;4966865;28;20057;-80
2021/10/08 05:49:44;;;;;;;16.92;10.82;;;;;;;;;;4951200;28;20102;-80
2021/10/08 05:52:10;;;;;;;16.13;10.52;;;;;;;;;;4967036;28;20054;-80
2021/10/08 05:54:36;;;;;;;24.85;11.52;;;;;;;;;;4950618;28;20035;-80
2021/10/08 05:57:04;;;;;;;16.40;10.95;;;;;;;;;;4951123;28;20515;-80
2021/10/08 05:59:30;;;;;;;21.17;13.38;;;;;;;;;;4963496;29;20035;-80
2021/10/08 06:01:56;;;;;;;21.65;13.30;;;;;;;;;;4947853;29;20035;-80
2021/10/08 06:04:22;;;;;;;22.33;12.48;;;;;;;;;;4966174;28;20450;-80
2021/10/08 06:06:48;;;;;;;20.10;12.93;;;;;;;;;;4951658;28;20039;-80
2021/10/08 06:09:14;;;;;;;20.08;12.48;;;;;;;;;;4967053;28;20413;-80
2021/10/08 06:11:40;;;;;;;21.45;12.65;;;;;;;;;;4950837;28;20038;-80
2021/10/08 06:14:06;;;;;;;23.73;12.15;;;;;;;;;;4953045;28;20098;-80
2021/10/08 06:16:32;;;;;;;23.23;13.10;;;;;;;;;;4967626;28;20037;-80
2021/10/08 06:18:58;;;;;;;23.92;14.07;;;;;;;;;;4969668;28;20042;-79
2021/10/08 06:21:24;;;;;;;20.35;12.57;;;;;;;;;;4968423;28;20050;-80
2021/10/08 06:23:51;;;;;;;23.17;13.93;;;;;;;;;;4968137;28;20031;-80
2021/10/08 06:26:17;;;;;;;21.38;13.52;;;;;;;;;;4991352;28;20031;-80
2021/10/08 06:28:43;;;;;;;24.55;14.65;;;;;;;;;;4958801;28;20057;-80
2021/10/08 06:31:09;;;;;;;29.48;13.95;;;;;;;;;;4957105;29;20038;-80
2021/10/08 06:33:35;;;;;;;23.50;14.52;;;;;;;;;;4983553;28;20039;-79
2021/10/08 06:36:01;;;;;;;28.00;15.30;;;;;;;;;;4974090;28;20029;-80
2021/10/08 06:38:27;;;;;;;23.30;13.70;;;;;;;;;;4974290;28;20058;-80
2021/10/08 06:40:53;;;;;;;30.25;16.00;;;;;;;;;;4967447;28;20023;-80
2021/10/08 06:43:19;;;;;;;27.38;16.27;;;;;;;;;;4968998;28;20042;-80
2021/10/08 06:45:45;;;;;;;31.27;17.05;;;;;;;;;;4969258;28;20130;-81
2021/10/08 06:48:11;;;;;;;28.17;16.67;;;;;;;;;;4965757;28;20455;-81
2021/10/08 06:50:37;;;;;;;27.83;17.48;;;;;;;;;;4962301;28;20543;-81
2021/10/08 06:53:03;;;;;;;30.70;18.10;;;;;;;;;;4982429;28;20066;-81
2021/10/08 06:55:29;;;;;;;29.45;16.42;;;;;;;;;;4965819;28;20123;-81
2021/10/08 06:57:55;;;;;;;33.17;17.63;;;;;;;;;;4949851;28;20082;-81
2021/10/08 07:00:23;;;;;;;27.55;17.02;;;;;;;;;;4956783;29;20042;-81
2021/10/08 07:02:55;;;;;;;33.58;18.25;;;;;;;;;;4969640;28;20023;-81
2021/10/08 07:05:22;;;;;;;29.58;18.05;;;;;;;;;;4984172;28;20023;-81
2021/10/08 07:07:49;;;;;;;32.83;19.45;;;;;;;;;;4952622;28;20070;-81
2021/10/08 07:10:15;;;;;;;29.90;19.02;;;;;;;;;;4951916;28;20102;-80
2021/10/08 07:12:41;;;;;;;32.20;16.63;;;;;;;;;;4968945;28;20086;-81
2021/10/08 07:15:15;;;;;;;30.23;18.73;;;;;;;;;;4988249;23;20558;-80
2021/10/08 07:17:43;;;;;;;28.13;16.73;;;;;;;;;;4954167;29;20035;-80
2021/10/08 07:20:09;;;;;;;23.08;14.15;;;;;;;;;;4938240;29;20026;-80
2021/10/08 07:22:37;;;;;;;19.83;13.77;;;;;;;;;;4938849;29;20035;-80
2021/10/08 07:25:04;;;;;;;18.52;12.80;;;;;;;;;;4945599;29;20033;-80
2021/10/08 07:27:31;;;;;;;15.15;11.75;;;;;;;;;;4940602;29;20222;-80
2021/10/08 07:29:57;;;;;;;18.48;12.23;;;;;;;;;;4957795;29;20043;-80
2021/10/08 07:32:23;;;;;;;15.00;11.50;;;;;;;;;;4965580;29;20094;-79
2021/10/08 07:34:49;;;;;;;19.75;11.77;;;;;;;;;;4960430;29;20040;-79
2021/10/08 07:37:15;;;;;;;15.20;11.32;;;;;;;;;;4958679;29;20027;-80
2021/10/08 07:39:42;;;;;;;15.98;9.75;;;;;;;;;;4957373;29;20038;-80
2021/10/08 07:42:08;;;;;;;12.63;9.90;;;;;;;;;;4941467;29;20031;-79
2021/10/08 07:44:34;;;;;;;17.40;10.20;;;;;;;;;;4958371;29;20039;-80
2021/10/08 07:47:00;;;;;;;13.63;10.43;;;;;;;;;;4960852;29;20122;-79
2021/10/08 07:49:26;;;;;;;15.13;10.10;;;;;;;;;;4958780;29;20491;-80
2021/10/08 07:51:53;;;;;;;16.55;9.88;;;;;;;;;;4958859;29;20042;-80
2021/10/08 07:54:19;;;;;;;13.20;8.93;;;;;;;;;;4959675;29;20051;-80
2021/10/08 07:56:45;;;;;;;11.10;7.18;;;;;;;;;;4959510;29;20095;-80
2021/10/08 07:59:11;;;;;;;11.30;8.10;;;;;;;;;;4943854;29;20032;-79
2021/10/08 08:01:37;;;;;;;13.25;7.85;;;;;;;;;;4939924;29;20027;-79
2021/10/08 08:04:03;;;;;;;10.30;7.05;;;;;;;;;;4974153;29;20570;-79
2021/10/08 08:06:29;;;;;;;9.15;6.75;;;;;;;;;;4965450;29;20160;-79
2021/10/08 08:08:55;;;;;;;12.23;8.40;;;;;;;;;;4962873;29;20027;-79
2021/10/08 08:11:21;;;;;;;13.98;8.15;;;;;;;;;;4962774;29;20137;-80
2021/10/08 08:13:47;;;;;;;13.02;8.20;;;;;;;;;;4963132;28;20039;-79
2021/10/08 08:16:14;;;;;;;9.30;6.60;;;;;;;;;;4964826;29;20035;-80
2021/10/08 08:18:41;;;;;;;8.07;5.65;;;;;;;;;;4945966;29;20037;-80
2021/10/08 08:21:07;;;;;;;9.27;6.38;;;;;;;;;;4963519;29;20033;-79
2021/10/08 08:23:33;;;;;;;10.80;6.78;;;;;;;;;;4963880;29;20046;-79
2021/10/08 08:25:59;;;;;;;8.80;6.38;;;;;;;;;;4952349;29;20049;-80
2021/10/08 08:28:27;;;;;;;9.10;5.40;;;;;;;;;;4969165;28;20031;-80
2021/10/08 08:30:53;;;;;;;10.43;4.72;;;;;;;;;;4921311;29;20032;-79
2021/10/08 08:33:20;;;;;;;7.82;5.13;;;;;;;;;;4960439;29;20472;-80
2021/10/08 08:35:46;;;;;;;8.23;4.97;;;;;;;;;;4968314;29;20078;-80
2021/10/08 08:38:12;;;;;;;6.57;4.90;;;;;;;;;;4969200;28;20043;-80
2021/10/08 08:40:38;;;;;;;6.50;4.43;;;;;;;;;;4952231;29;20030;-79
2021/10/08 08:43:04;;;;;;;8.68;4.35;;;;;;;;;;4968134;29;20026;-79
2021/10/08 08:45:31;;;;;;;10.48;4.45;;;;;;;;;;4951585;29;20086;-79
2021/10/08 08:48:07;;;;;;;6.20;4.20;;;;;;;;;;4969818;28;20030;-80
2021/10/08 08:50:34;;;;;;;5.78;3.40;;;;;;;;;;4952772;28;20035;-80
2021/10/08 08:53:00;;;;;;;4.70;3.17;;;;;;;;;;4952633;29;20019;-80
2021/10/08 08:55:27;;;;;;;6.18;3.28;;;;;;;;;;4970348;28;20039;-80
2021/10/08 08:57:53;;;;;;;7.13;3.35;;;;;;;;;;4969229;28;20042;-79
2021/10/08 09:00:20;;;;;;;5.28;2.78;;;;;;;;;;4959692;29;20067;-80
2021/10/08 09:02:57;;;;;;;4.72;3.05;;;;;;;;;;4948750;29;20118;-79
2021/10/08 09:05:25;;;;;;;5.43;2.90;;;;;;;;;;4970559;28;20027;-80
2021/10/08 09:07:55;;;;;;;9.88;2.85;;;;;;;;;;4969821;28;20022;-79
2021/10/08 09:10:22;;;;;;;7.65;2.55;;;;;;;;;;4969356;29;20030;-80
2021/10/08 09:12:49;;;;;;;5.13;2.90;;;;;;;;;;4964310;28;20023;-79
2021/10/08 09:15:15;;;;;;;4.38;2.17;;;;;;;;;;4965963;29;20058;-80
2021/10/08 09:17:42;;;;;;;7.20;2.85;;;;;;;;;;4965833;29;20031;-80
2021/10/08 09:20:15;;;;;;;4.80;2.60;;;;;;;;;;4966626;29;20023;-79
2021/10/08 09:22:41;;;;;;;5.35;2.95;;;;;;;;;;4967081;29;20095;-80
2021/10/08 09:25:15;;;;;;;4.38;2.78;;;;;;;;;;4967567;29;20035;-80
2021/10/08 09:27:41;;;;;;;5.03;2.85;;;;;;;;;;4961562;29;20028;-80
2021/10/08 09:30:08;;;;;;;5.18;2.90;;;;;;;;;;4952317;29;20459;-80
2021/10/08 09:32:40;;;;;;;2.92;2.38;;;;;;;;;;4948853;29;20027;-80
2021/10/08 09:35:07;;;;;;;5.05;3.03;;;;;;;;;;4964118;29;20452;-80
2021/10/08 09:37:34;;;;;;;6.15;3.03;;;;;;;;;;4959950;29;20082;-80
2021/10/08 09:40:00;;;;;;;6.10;2.95;;;;;;;;;;4962107;29;20439;-80
2021/10/08 09:42:34;;;;;;;5.70;2.90;;;;;;;;;;4961536;29;20023;-81
2021/10/08 09:45:00;;;;;;;6.38;3.10;;;;;;;;;;4960084;29;20396;-79
2021/10/08 09:47:27;;;;;;;5.18;2.70;;;;;;;;;;4944703;29;20043;-81
2021/10/08 09:50:05;;;;;;;6.15;2.92;;;;;;;;;;4942803;29;20019;-81
2021/10/08 09:52:32;;;;;;;4.22;2.90;;;;;;;;;;4964816;29;20027;-81
2021/10/08 09:55:02;;;;;;;6.50;2.63;;;;;;;;;;4966497;29;20028;-81
2021/10/08 09:57:29;;;;;;;4.65;2.63;;;;;;;;;;4966971;29;20043;-80
2021/10/08 09:59:55;;;;;;;4.05;2.63;;;;;;;;;;4959611;29;20393;-80
2021/10/08 10:02:22;;;;;;;4.80;2.17;;;;;;;;;;4949803;29;20106;-81
2021/10/08 10:04:48;;;;;;;6.40;2.22;;;;;;;;;;4967237;29;20031;-80
2021/10/08 10:07:15;;;;;;;5.15;2.10;;;;;;;;;;4949978;29;20023;-81
2021/10/08 10:09:41;;;;;;;5.13;2.83;;;;;;;;;;4966378;29;20045;-81
2021/10/08 10:12:07;;;;;;;4.93;2.78;;;;;;;;;;4966140;29;20095;-81
2021/10/08 10:14:34;;;;;;;4.13;2.58;;;;;;;;;;4949357;29;20035;-81
2021/10/08 10:17:01;;;;;;;8.55;2.95;;;;;;;;;;4967027;29;20070;-81
2021/10/08 10:19:27;;;;;;;6.82;2.90;;;;;;;;;;4966938;29;20039;-81
2021/10/08 10:21:54;;;;;;;5.22;3.22;;;;;;;;;;4966860;29;20038;-80
2021/10/08 10:24:22;;;;;;;5.53;3.28;;;;;;;;;;4966350;28;20035;-80
2021/10/08 10:26:48;;;;;;;4.57;2.40;;;;;;;;;;4967608;29;20046;-81
2021/10/08 10:29:14;;;;;;;6.70;2.60;;;;;;;;;;4966506;29;20369;-80
2021/10/08 10:31:40;;;;;;;3.83;2.40;;;;;;;;;;4946838;29;20034;-80
2021/10/08 10:34:07;;;;;;;5.22;2.55;;;;;;;;;;4964021;29;20031;-81
2021/10/08 10:36:38;;;;;;;6.32;2.50;;;;;;;;;;4967756;29;20042;-80
2021/10/08 10:39:20;;;;;;;6.43;2.50;;;;;;;;;;4966702;29;20078;-81
2021/10/08 10:41:48;;;;;;;3.95;2.58;;;;;;;;;;4965065;29;20055;-81
2021/10/08 10:44:28;;;;;;;3.78;2.55;;;;;;;;;;4970470;29;20037;-80
2021/10/08 10:47:13;;;;;;;4.55;2.28;;;;;;;;;;4974837;29;20113;-81
2021/10/08 10:49:42;;;;;;;9.25;3.17;;;;;;;;;;4931191;29;20032;-80
2021/10/08 10:52:08;;;;;;;6.75;3.13;;;;;;;;;;4955189;29;20043;-81
2021/10/08 10:54:35;;;;;;;5.68;2.80;;;;;;;;;;4941077;29;20118;-81
2021/10/08 10:57:04;;;;;;;6.32;3.10;;;;;;;;;;4972556;29;20024;-80
2021/10/08 10:59:31;;;;;;;6.47;3.03;;;;;;;;;;4975737;28;20061;-80
2021/10/08 11:04:29;;;;;;;7.28;3.50;;;;;;;;;;4970690;29;20035;-81
2021/10/08 11:07:05;;;;;;;9.45;3.13;;;;;;;;;;4966220;29;20059;-81
2021/10/08 11:09:31;;;;;;;6.60;3.50;;;;;;;;;;4947176;29;20015;-80
2021/10/08 11:12:16;;;;;;;7.40;3.83;;;;;;;;;;4965608;29;20457;-80
2021/10/08 11:14:42;;;;;;;5.95;3.05;;;;;;;;;;4964290;29;20185;-81
2021/10/08 11:17:28;;;;;;;5.43;2.97;;;;;;;;;;4964308;29;20032;-80
2021/10/08 11:19:54;;;;;;;7.30;3.63;;;;;;;;;;4960067;29;20066;-80
2021/10/08 11:22:40;;;;;;;8.02;3.40;;;;;;;;;;4967561;29;20031;-80
2021/10/08 11:25:06;;;;;;;7.25;3.92;;;;;;;;;;4965610;29;20027;-81
2021/10/08 11:27:33;;;;;;;6.00;3.22;;;;;;;;;;4945660;29;20023;-81
2021/10/08 11:30:03;;;;;;;9.63;3.72;;;;;;;;;;4955936;29;20027;-81
2021/10/08 11:32:31;;;;;;;5.93;4.05;;;;;;;;;;4976794;29;20242;-81
2021/10/08 11:34:57;;;;;;;7.28;3.85;;;;;;;;;;4975779;28;20042;-81
2021/10/08 11:37:23;;;;;;;6.95;3.95;;;;;;;;;;4964693;29;20492;-81
2021/10/08 11:39:50;;;;;;;4.95;3.85;;;;;;;;;;4973481;29;20031;-81
2021/10/08 11:42:18;;;;;;;5.93;3.50;;;;;;;;;;4959837;29;20082;-81
2021/10/08 11:45:06;;;;;;;5.97;3.63;;;;;;;;;;4942709;29;20034;-81
2021/10/08 11:52:28;;;;;;;6.03;3.63;;;;;;;;;;4971523;29;20793;-81
2021/10/08 11:55:32;;;;;;;7.95;3.80;;;;;;;;;;4942968;29;20067;-80
2021/10/08 11:57:58;;;;;;;7.65;4.35;;;;;;;;;;4898460;29;20124;-81
2021/10/08 12:00:26;;;;;;;6.43;4.35;;;;;;;;;;4936020;29;20071;-81
2021/10/08 12:02:59;;;;;;;8.80;5.10;;;;;;;;;;4952886;29;20365;-81
2021/10/08 12:05:25;;;;;;;10.07;5.28;;;;;;;;;;4959790;29;20024;-81
2021/10/08 12:08:01;;;;;;;7.47;4.95;;;;;;;;;;4958662;29;20441;-81
2021/10/08 12:10:27;;;;;;;9.93;4.97;;;;;;;;;;4944470;29;20027;-80
2021/10/08 12:12:54;;;;;;;8.57;4.57;;;;;;;;;;4959828;29;20030;-81
2021/10/08 12:15:25;;;;;;;8.82;4.65;;;;;;;;;;4961989;29;20059;-80
2021/10/08 12:17:52;;;;;;;7.70;4.75;;;;;;;;;;4962212;29;20027;-80
2021/10/08 12:20:38;;;;;;;8.68;4.13;;;;;;;;;;4966349;29;20054;-80
2021/10/08 12:23:14;;;;;;;8.18;4.70;;;;;;;;;;4954695;29;20124;-80
2021/10/08 12:25:40;;;;;;;9.40;5.38;;;;;;;;;;4966824;29;20039;-80
2021/10/08 12:28:07;;;;;;;6.80;4.45;;;;;;;;;;4957943;29;20023;-80
2021/10/08 12:30:33;;;;;;;7.85;4.70;;;;;;;;;;4947195;29;20136;-80
2021/10/08 12:33:03;;;;;;;7.43;4.47;;;;;;;;;;4947624;29;20408;-80
2021/10/08 12:35:29;;;;;;;6.60;5.07;;;;;;;;;;4958836;29;20098;-80
2021/10/08 12:38:00;;;;;;;7.25;4.90;;;;;;;;;;4959332;29;20407;-79
2021/10/08 12:40:26;;;;;;;8.48;4.80;;;;;;;;;;4958414;29;20030;-80
2021/10/08 12:42:58;;;;;;;9.20;4.97;;;;;;;;;;4958751;29;20067;-81
2021/10/08 12:45:33;;;;;;;8.15;5.00;;;;;;;;;;4959665;29;20512;-82
2021/10/08 12:48:00;;;;;;;8.32;4.93;;;;;;;;;;4962207;28;20023;-81
2021/10/08 12:50:26;;;;;;;8.15;4.93;;;;;;;;;;4962357;29;20400;-81
2021/10/08 12:52:54;;;;;;;7.35;4.40;;;;;;;;;;4962782;29;20046;-81
2021/10/08 12:55:21;;;;;;;9.55;5.03;;;;;;;;;;4962599;29;20577;-81
2021/10/08 12:57:59;;;;;;;7.53;5.20;;;;;;;;;;4945192;29;20038;-81
2021/10/08 13:00:31;;;;;;;11.30;5.78;;;;;;;;;;4951197;29;20020;-81
2021/10/08 13:02:57;;;;;;;7.47;5.10;;;;;;;;;;4952825;29;20027;-81
2021/10/08 13:05:23;;;;;;;9.82;5.00;;;;;;;;;;4952912;29;20022;-81
2021/10/08 13:08:08;;;;;;;8.57;5.15;;;;;;;;;;4962542;29;20432;-81
2021/10/08 13:10:34;;;;;;;9.20;5.18;;;;;;;;;;4961763;29;20103;-81
2021/10/08 13:13:00;;;;;;;8.93;4.90;;;;;;;;;;4945297;29;20038;-82
2021/10/08 13:15:30;;;;;;;9.13;5.22;;;;;;;;;;4946016;29;20039;-81
2021/10/08 13:18:01;;;;;;;10.13;5.22;;;;;;;;;;4949377;29;20027;-81
2021/10/08 13:20:27;;;;;;;8.02;4.95;;;;;;;;;;4966102;29;20074;-81
2021/10/08 13:22:53;;;;;;;8.20;4.75;;;;;;;;;;4966773;29;20019;-81
2021/10/08 13:25:20;;;;;;;7.25;5.25;;;;;;;;;;4967043;29;20043;-81
2021/10/08 13:27:46;;;;;;;7.40;5.40;;;;;;;;;;4965249;29;20031;-81
2021/10/08 13:30:12;;;;;;;6.32;4.72;;;;;;;;;;4966760;29;20159;-81
2021/10/08 13:32:38;;;;;;;7.18;5.32;;;;;;;;;;4967645;29;20035;-81
2021/10/08 13:35:04;;;;;;;5.93;4.70;;;;;;;;;;4949549;29;20031;-81
2021/10/08 13:37:30;;;;;;;9.30;5.93;;;;;;;;;;4950275;29;20055;-81
2021/10/08 13:39:56;;;;;;;7.47;6.07;;;;;;;;;;4966660;29;20106;-81
2021/10/08 13:42:22;;;;;;;7.47;5.10;;;;;;;;;;4966642;29;20082;-81
2021/10/08 13:44:48;;;;;;;8.40;5.03;;;;;;;;;;4966155;29;20031;-81
2021/10/08 13:47:14;;;;;;;7.20;5.75;;;;;;;;;;4966678;29;20027;-81
2021/10/08 13:49:40;;;;;;;9.32;5.55;;;;;;;;;;4965600;29;20033;-81
2021/10/08 13:52:08;;;;;;;7.82;5.78;;;;;;;;;;4966614;29;20027;-81
2021/10/08 13:54:34;;;;;;;14.85;6.78;;;;;;;;;;4948688;29;20034;-81
2021/10/08 13:57:00;;;;;;;7.57;6.03;;;;;;;;;;4972911;29;20027;-81
2021/10/08 13:59:27;;;;;;;9.95;5.78;;;;;;;;;;4970779;28;20113;-81
2021/10/08 14:04:28;;;;;;;8.35;6.30;;;;;;;;;;4966002;29;20039;-80
2021/10/08 14:12:29;;;;;;;8.55;6.18;;;;;;;;;;4967434;29;20035;-81
2021/10/08 14:14:56;;;;;;;8.75;5.82;;;;;;;;;;4970682;28;20039;-81
2021/10/08 14:17:22;;;;;;;8.73;5.55;;;;;;;;;;4967941;29;20721;-81
2021/10/08 14:19:48;;;;;;;11.98;6.25;;;;;;;;;;4969866;29;20042;-81
2021/10/08 14:22:14;;;;;;;7.80;5.95;;;;;;;;;;4970775;29;20062;-81
2021/10/08 14:24:40;;;;;;;7.75;5.32;;;;;;;;;;4971863;29;20366;-81
2021/10/08 14:27:06;;;;;;;8.63;5.65;;;;;;;;;;4943107;29;20563;-81
2021/10/08 14:29:32;;;;;;;8.05;5.28;;;;;;;;;;4973446;29;20034;-81
2021/10/08 14:31:58;;;;;;;7.25;5.43;;;;;;;;;;4957008;29;20041;-82
2021/10/08 14:34:24;;;;;;;7.72;5.85;;;;;;;;;;4954468;29;20043;-81
2021/10/08 14:36:50;;;;;;;7.85;5.53;;;;;;;;;;4971200;29;20050;-82
2021/10/08 14:39:16;;;;;;;8.02;5.20;;;;;;;;;;4951179;29;20055;-82
2021/10/08 14:41:42;;;;;;;5.95;4.65;;;;;;;;;;4950159;29;20030;-82
2021/10/08 14:44:08;;;;;;;7.28;5.55;;;;;;;;;;4967095;29;20071;-82
2021/10/08 14:46:34;;;;;;;9.15;5.35;;;;;;;;;;4967355;29;20055;-82
2021/10/08 14:49:00;;;;;;;7.43;5.35;;;;;;;;;;4933729;29;20488;-81
2021/10/08 14:51:31;;;;;;;10.75;6.32;;;;;;;;;;4932400;29;20523;-81